Time;durP1;ratioP1;P1;durP2;ratioP2;P2;SDS_P1;SDS_P2;PMS_P1;PMS_P2;Temp;Humidity;BMP_temperature;BMP_pressure;BME280_temperature;BME280_humidity;BME280_pressure;Samples;Min_cycle;Max_cycle;Signal;HPM_P1;HPM_P2
2022/09/30 03:48:00;;;;;;;15.65;11.73;;;11.70;99.90;;;;;;5625791;23;20046;-77
2022/09/30 03:50:30;;;;;;;15.45;11.18;;;11.80;99.90;;;;;;4998572;28;20426;-77
2022/09/30 03:52:57;;;;;;;16.25;10.88;;;11.70;99.90;;;;;;4986464;28;20089;-84
2022/09/30 03:55:25;;;;;;;17.98;12.20;;;11.70;99.90;;;;;;4994563;28;20084;-84
2022/09/30 03:57:53;;;;;;;19.58;11.55;;;11.70;99.90;;;;;;4986540;28;20046;-84
2022/09/30 04:00:20;;;;;;;17.63;11.48;;;11.70;99.90;;;;;;5001492;28;20112;-84
2022/09/30 04:02:47;;;;;;;16.38;11.00;;;11.70;99.90;;;;;;4993277;28;20042;-82
2022/09/30 04:05:13;;;;;;;15.20;9.80;;;11.70;99.90;;;;;;5007839;28;20140;-85
2022/09/30 04:07:40;;;;;;;14.57;9.95;;;11.70;99.90;;;;;;5001376;28;20052;-83
2022/09/30 04:10:07;;;;;;;12.73;9.10;;;11.80;99.90;;;;;;5011620;28;20045;-84
2022/09/30 04:12:34;;;;;;;13.32;9.68;;;11.70;99.90;;;;;;5001207;28;20054;-85
2022/09/30 04:15:01;;;;;;;11.63;8.35;;;11.70;99.90;;;;;;5001043;28;20053;-85
2022/09/30 04:17:27;;;;;;;12.32;8.90;;;11.70;99.90;;;;;;5013293;28;20054;-84
2022/09/30 04:19:54;;;;;;;10.98;8.35;;;11.70;99.90;;;;;;4991540;28;20046;-84
2022/09/30 04:22:21;;;;;;;10.52;7.95;;;11.80;99.90;;;;;;4992514;28;20106;-84
2022/09/30 04:24:52;;;;;;;13.32;8.38;;;11.80;99.90;;;;;;5015631;28;20097;-84
2022/09/30 04:27:19;;;;;;;15.20;7.78;;;11.70;99.90;;;;;;5014176;28;20141;-84
2022/09/30 04:29:45;;;;;;;10.73;7.03;;;11.70;99.90;;;;;;5011125;28;20054;-85
2022/09/30 04:32:12;;;;;;;12.63;8.88;;;11.80;99.90;;;;;;5014216;28;20414;-84
2022/09/30 04:34:39;;;;;;;11.38;8.20;;;11.80;99.90;;;;;;5021165;28;20430;-84
2022/09/30 04:37:05;;;;;;;11.75;9.10;;;11.70;99.90;;;;;;5000722;28;20133;-85
2022/09/30 04:39:36;;;;;;;13.38;10.27;;;11.80;99.90;;;;;;5011692;28;20056;-85
2022/09/30 04:42:03;;;;;;;14.30;9.63;;;11.80;99.90;;;;;;5003280;28;20050;-84
2022/09/30 04:44:30;;;;;;;14.82;10.60;;;11.80;99.90;;;;;;5003123;28;20054;-85
2022/09/30 04:46:57;;;;;;;14.90;10.18;;;11.80;99.90;;;;;;4994126;28;20054;-84
2022/09/30 04:49:23;;;;;;;12.13;9.32;;;11.70;99.90;;;;;;4997750;28;20055;-84
2022/09/30 04:51:50;;;;;;;13.32;8.45;;;11.70;99.90;;;;;;4992121;28;20048;-84
2022/09/30 04:54:17;;;;;;;14.13;9.77;;;11.70;99.90;;;;;;4989684;28;20050;-85
2022/09/30 04:56:44;;;;;;;12.38;9.68;;;11.70;99.90;;;;;;5007540;28;20547;-85
2022/09/30 04:59:11;;;;;;;13.55;11.02;;;11.60;99.90;;;;;;4997984;28;20438;-85
2022/09/30 05:01:39;;;;;;;16.15;10.48;;;11.60;99.90;;;;;;5012961;28;20050;-84
2022/09/30 05:04:07;;;;;;;14.32;10.48;;;11.50;99.90;;;;;;5003204;28;20049;-84
2022/09/30 05:06:33;;;;;;;14.20;9.10;;;11.40;99.90;;;;;;5000928;28;20518;-84
2022/09/30 05:09:00;;;;;;;13.50;8.07;;;11.40;99.90;;;;;;4998466;28;20136;-84
2022/09/30 05:11:28;;;;;;;11.68;7.72;;;11.40;99.90;;;;;;4987781;28;20058;-83
2022/09/30 05:13:55;;;;;;;10.32;7.70;;;11.30;99.90;;;;;;5004636;28;20530;-84
2022/09/30 05:16:21;;;;;;;8.88;5.97;;;11.40;99.90;;;;;;5003748;28;20050;-83
2022/09/30 05:18:48;;;;;;;9.82;5.95;;;11.30;99.90;;;;;;4997646;28;20050;-84
2022/09/30 05:21:19;;;;;;;9.48;5.75;;;11.30;99.90;;;;;;4990158;28;20049;-84
2022/09/30 05:23:46;;;;;;;7.38;5.72;;;11.30;99.90;;;;;;4996195;28;20042;-84
2022/09/30 05:26:13;;;;;;;8.77;5.47;;;11.30;99.90;;;;;;4991329;28;20132;-82
2022/09/30 05:28:41;;;;;;;9.13;5.40;;;11.30;99.90;;;;;;5012527;28;20064;-83
2022/09/30 05:31:08;;;;;;;9.27;5.97;;;11.30;99.90;;;;;;5006173;28;20062;-83
2022/09/30 05:33:35;;;;;;;7.65;5.85;;;11.30;99.90;;;;;;5001679;28;20050;-84
2022/09/30 05:36:05;;;;;;;11.35;6.22;;;11.40;99.90;;;;;;4982741;28;20055;-84
2022/09/30 05:38:32;;;;;;;9.40;5.88;;;11.40;99.90;;;;;;4985083;28;20046;-84
2022/09/30 05:41:07;;;;;;;7.70;6.07;;;11.40;99.90;;;;;;5003072;28;20042;-83
2022/09/30 05:43:37;;;;;;;8.88;6.30;;;11.40;99.90;;;;;;4984714;28;20049;-84
2022/09/30 05:46:03;;;;;;;9.83;6.67;;;11.50;99.90;;;;;;5001666;28;20082;-83
2022/09/30 05:48:31;;;;;;;9.77;6.72;;;11.50;99.90;;;;;;5008615;28;20295;-83
2022/09/30 05:51:00;;;;;;;9.82;7.68;;;11.50;99.90;;;;;;4997662;28;20064;-84
2022/09/30 05:53:28;;;;;;;11.18;7.43;;;11.50;99.90;;;;;;4986342;28;20064;-83
2022/09/30 05:55:54;;;;;;;9.98;7.15;;;11.50;99.90;;;;;;5006864;28;20050;-80
2022/09/30 05:58:21;;;;;;;10.30;6.85;;;11.50;99.90;;;;;;5015124;28;20388;-82
2022/09/30 06:00:49;;;;;;;13.55;7.28;;;11.50;99.90;;;;;;4988925;28;20389;-85
2022/09/30 06:03:17;;;;;;;11.20;6.75;;;11.50;99.90;;;;;;4990481;28;20426;-84
2022/09/30 06:05:46;;;;;;;9.00;6.53;;;11.50;99.90;;;;;;5003061;28;20042;-84
2022/09/30 06:08:14;;;;;;;9.70;6.43;;;11.60;99.90;;;;;;5000688;28;20129;-84
2022/09/30 06:10:43;;;;;;;7.85;6.30;;;11.50;99.90;;;;;;4989973;28;20046;-84
2022/09/30 06:13:10;;;;;;;10.77;6.43;;;11.50;99.90;;;;;;4991523;28;20154;-85
2022/09/30 06:15:38;;;;;;;9.15;6.35;;;11.50;99.90;;;;;;4984030;28;20050;-85
2022/09/30 06:18:05;;;;;;;7.63;6.35;;;11.60;99.90;;;;;;4994652;28;20066;-84
2022/09/30 06:20:32;;;;;;;7.20;6.13;;;11.50;99.90;;;;;;4987410;28;20597;-84
2022/09/30 06:23:00;;;;;;;8.23;6.63;;;11.50;99.90;;;;;;5007491;28;20562;-84
2022/09/30 06:25:28;;;;;;;11.73;6.75;;;11.50;99.90;;;;;;4982464;28;20426;-83
2022/09/30 06:27:55;;;;;;;10.32;7.15;;;11.40;99.90;;;;;;4986511;28;20053;-86
2022/09/30 06:30:22;;;;;;;8.98;6.93;;;11.40;99.90;;;;;;5000721;28;20118;-84
2022/09/30 06:32:49;;;;;;;14.57;7.82;;;11.40;99.90;;;;;;4985560;28;20157;-84
2022/09/30 06:35:15;;;;;;;14.88;9.48;;;11.40;99.90;;;;;;5004470;28;20562;-85
2022/09/30 06:37:43;;;;;;;11.88;9.25;;;11.40;99.90;;;;;;4986267;28;20132;-85
2022/09/30 06:40:10;;;;;;;10.93;8.77;;;11.30;99.90;;;;;;5005002;28;20057;-84
2022/09/30 06:42:37;;;;;;;11.98;8.68;;;11.40;99.90;;;;;;4994502;28;20502;-85
2022/09/30 06:45:04;;;;;;;16.85;10.73;;;11.40;99.90;;;;;;4989424;28;20052;-85
2022/09/30 06:47:32;;;;;;;15.60;10.27;;;11.40;99.90;;;;;;4995036;28;20410;-85
2022/09/30 06:49:59;;;;;;;13.77;10.35;;;11.40;99.90;;;;;;4988208;28;20054;-85
2022/09/30 06:52:26;;;;;;;16.20;11.30;;;11.40;99.90;;;;;;4993520;28;20492;-84
2022/09/30 06:54:55;;;;;;;16.20;10.48;;;11.40;99.90;;;;;;4993791;28;20051;-85
2022/09/30 06:57:25;;;;;;;13.15;10.00;;;11.50;99.90;;;;;;4979731;28;20062;-85
2022/09/30 06:59:53;;;;;;;12.43;9.52;;;11.50;99.90;;;;;;4987567;28;20057;-84
2022/09/30 07:02:20;;;;;;;11.18;9.00;;;11.50;99.90;;;;;;4988177;28;20046;-85
2022/09/30 07:04:47;;;;;;;10.60;8.65;;;11.50;99.90;;;;;;5006840;28;20066;-84
2022/09/30 07:07:14;;;;;;;13.32;9.88;;;11.60;99.90;;;;;;4991202;28;20062;-85
2022/09/30 07:09:42;;;;;;;15.90;10.73;;;11.60;99.90;;;;;;4991143;28;20053;-84
2022/09/30 07:12:09;;;;;;;13.65;10.25;;;11.50;99.90;;;;;;4992836;28;20054;-85
2022/09/30 07:14:36;;;;;;;15.63;10.75;;;11.50;99.90;;;;;;4989792;28;20713;-85
2022/09/30 07:17:04;;;;;;;14.50;10.07;;;11.40;99.90;;;;;;4982470;28;20050;-85
2022/09/30 07:19:33;;;;;;;14.00;10.05;;;11.30;99.90;;;;;;5008913;28;20053;-85
2022/09/30 07:22:26;;;;;;;11.25;9.38;;;11.40;99.90;;;;;;4994788;28;20072;-85
2022/09/30 07:24:47;;;;;;;12.13;9.40;;;11.40;99.90;;;;;;5003638;28;20464;-85
2022/09/30 07:27:13;;;;;;;10.77;8.85;;;11.50;99.90;;;;;;4991914;28;20046;-85
2022/09/30 07:29:40;;;;;;;12.32;8.85;;;11.50;99.90;;;;;;4987570;28;20058;-85
2022/09/30 07:32:27;;;;;;;11.00;7.43;;;11.60;99.90;;;;;;4996839;28;20058;-85
2022/09/30 07:34:54;;;;;;;7.63;6.40;;;11.60;99.90;;;;;;4988035;28;20574;-85
2022/09/30 07:37:22;;;;;;;9.75;6.70;;;11.60;99.90;;;;;;5001318;28;20499;-85
2022/09/30 07:39:49;;;;;;;7.95;6.60;;;11.60;99.90;;;;;;5000696;28;20418;-85
2022/09/30 07:42:20;;;;;;;8.38;6.35;;;11.60;99.90;;;;;;5002422;28;20049;-85
2022/09/30 07:44:50;;;;;;;6.65;5.22;;;11.60;99.90;;;;;;4993449;28;20042;-84
2022/09/30 07:47:19;;;;;;;7.03;5.05;;;11.60;99.90;;;;;;5003324;28;20097;-85
2022/09/30 07:49:46;;;;;;;6.10;5.28;;;11.50;99.90;;;;;;4986383;28;20439;-85
2022/09/30 07:52:13;;;;;;;6.30;5.55;;;11.60;99.90;;;;;;4991454;28;20081;-85
2022/09/30 07:54:41;;;;;;;7.22;5.82;;;11.60;99.90;;;;;;5004511;28;20053;-85
2022/09/30 07:57:14;;;;;;;9.75;5.38;;;11.60;99.90;;;;;;4994340;28;20420;-86
2022/09/30 07:59:41;;;;;;;5.35;4.85;;;11.60;99.90;;;;;;4989671;28;20133;-85
2022/09/30 08:02:13;;;;;;;6.13;5.18;;;11.60;99.90;;;;;;5003715;28;20141;-85
2022/09/30 08:04:40;;;;;;;10.00;7.32;;;11.70;99.90;;;;;;5010762;28;20050;-86
2022/09/30 08:07:10;;;;;;;;;;;11.70;99.90;;;;;;5010394;28;20085;-85
2022/09/30 08:09:37;;;;;;;10.30;7.25;;;11.60;99.90;;;;;;4998820;28;19929;-84
2022/09/30 08:12:04;;;;;;;11.02;7.07;;;11.70;99.90;;;;;;4984371;28;20050;-86
2022/09/30 08:14:31;;;;;;;9.65;7.63;;;11.80;99.90;;;;;;4991638;28;20487;-85
2022/09/30 08:16:59;;;;;;;10.20;7.57;;;11.80;99.90;;;;;;5003769;28;20163;-85
2022/09/30 08:19:32;;;;;;;11.95;7.55;;;11.90;99.90;;;;;;4990673;28;20058;-85
2022/09/30 08:21:59;;;;;;;10.13;7.60;;;11.90;99.90;;;;;;4989237;28;20096;-85
2022/09/30 08:24:26;;;;;;;11.27;7.53;;;11.90;99.90;;;;;;4986874;28;20440;-85
2022/09/30 08:26:54;;;;;;;11.90;7.47;;;11.90;99.90;;;;;;4990098;28;20050;-84
2022/09/30 08:29:21;;;;;;;9.55;7.60;;;11.80;99.90;;;;;;5016316;28;20050;-86
2022/09/30 08:32:07;;;;;;;10.00;7.57;;;11.70;99.90;;;;;;5002511;28;20061;-85
2022/09/30 08:34:34;;;;;;;9.13;8.10;;;11.60;99.90;;;;;;4994628;28;20047;-84
2022/09/30 08:37:02;;;;;;;12.93;8.57;;;11.60;99.90;;;;;;4996617;28;20050;-85
2022/09/30 08:39:34;;;;;;;9.18;7.72;;;11.60;99.90;;;;;;4987231;28;20147;-85
2022/09/30 08:42:04;;;;;;;8.07;7.03;;;11.60;99.90;;;;;;5004449;28;20137;-84
2022/09/30 08:44:51;;;;;;;10.05;8.13;;;11.60;99.90;;;;;;5010040;28;20415;-85
2022/09/30 08:47:35;;;;;;;9.25;7.55;;;11.60;99.90;;;;;;4984935;28;20058;-84
2022/09/30 08:50:09;;;;;;;10.85;7.75;;;11.80;99.90;;;;;;5004958;28;20054;-85
2022/09/30 08:52:44;;;;;;;11.40;7.55;;;11.80;99.90;;;;;;4991345;28;20054;-86
2022/09/30 08:55:23;;;;;;;12.05;6.80;;;11.80;99.90;;;;;;5003123;28;20058;-85
2022/09/30 08:57:51;;;;;;;9.88;6.82;;;11.90;99.90;;;;;;4985421;28;20050;-85
2022/09/30 09:00:19;;;;;;;11.52;7.07;;;12.10;99.90;;;;;;5006353;28;20138;-85
2022/09/30 09:02:54;;;;;;;10.68;7.68;;;12.10;99.90;;;;;;4994604;28;20082;-85
2022/09/30 09:05:24;;;;;;;8.25;6.57;;;12.20;99.90;;;;;;5000756;28;20218;-85
2022/09/30 09:07:54;;;;;;;12.05;6.65;;;12.20;99.90;;;;;;5004753;28;20057;-85
2022/09/30 09:10:44;;;;;;;7.57;6.50;;;12.30;99.90;;;;;;4990384;28;20137;-84
2022/09/30 09:13:33;;;;;;;8.82;6.47;;;12.40;99.90;;;;;;4993747;28;20081;-85
2022/09/30 09:16:18;;;;;;;11.52;7.10;;;12.40;99.90;;;;;;5003089;28;20054;-85
2022/09/30 09:18:54;;;;;;;7.10;6.00;;;12.40;99.90;;;;;;5007138;28;20484;-84
2022/09/30 09:21:30;;;;;;;6.97;5.95;;;12.60;99.90;;;;;;5005373;28;20056;-85
2022/09/30 09:24:02;;;;;;;9.02;5.68;;;12.60;99.90;;;;;;4991092;28;20077;-85
2022/09/30 09:26:34;;;;;;;8.13;6.00;;;12.70;99.90;;;;;;4984786;28;20065;-85
2022/09/30 09:29:19;;;;;;;7.90;6.28;;;12.60;99.90;;;;;;4988843;28;20061;-86
2022/09/30 09:31:47;;;;;;;6.78;5.72;;;12.60;99.90;;;;;;4989021;28;20126;-85
2022/09/30 09:34:14;;;;;;;9.50;6.78;;;12.70;99.90;;;;;;4992375;28;20050;-84
2022/09/30 09:36:56;;;;;;;7.10;5.97;;;12.80;99.90;;;;;;4987689;28;20798;-85
2022/09/30 09:39:47;;;;;;;8.30;5.88;;;12.90;99.90;;;;;;4987281;28;20045;-85
2022/09/30 09:42:22;;;;;;;6.60;5.32;;;12.90;99.90;;;;;;5004056;28;20068;-85
2022/09/30 09:45:07;;;;;;;8.18;5.82;;;13.00;99.90;;;;;;4990881;28;20125;-85
2022/09/30 09:47:34;;;;;;;6.57;5.40;;;13.20;99.90;;;;;;4982809;28;20050;-85
2022/09/30 09:50:04;;;;;;;5.22;4.65;;;13.20;99.90;;;;;;4988454;28;20052;-85
2022/09/30 09:53:10;;;;;;;5.63;5.03;;;13.20;99.90;;;;;;4994735;28;20050;-84
2022/09/30 09:55:37;;;;;;;8.02;5.68;;;13.30;99.90;;;;;;4984284;28;20050;-85
2022/09/30 09:58:12;;;;;;;8.70;5.13;;;13.30;99.90;;;;;;4998850;28;20129;-85
2022/09/30 10:03:22;;;;;;;6.07;5.20;;;13.50;99.90;;;;;;5003859;28;20056;-85
2022/09/30 10:06:01;;;;;;;7.25;5.28;;;13.60;99.90;;;;;;4989202;28;20058;-85
2022/09/30 10:08:30;;;;;;;7.07;5.63;;;13.80;99.90;;;;;;5003149;28;20064;-85
2022/09/30 10:11:10;;;;;;;11.45;6.03;;;13.80;99.90;;;;;;4991798;28;20130;-85
2022/09/30 10:13:43;;;;;;;5.30;4.80;;;13.80;99.90;;;;;;4988432;28;20046;-86
2022/09/30 10:16:31;;;;;;;6.05;5.10;;;13.90;99.90;;;;;;5004636;28;20057;-85
2022/09/30 10:18:59;;;;;;;7.55;4.53;;;13.80;99.90;;;;;;4997611;28;20054;-85
2022/09/30 10:21:27;;;;;;;7.85;5.10;;;13.70;99.90;;;;;;5003255;28;20202;-84
2022/09/30 10:23:56;;;;;;;5.63;4.70;;;13.70;99.90;;;;;;5004067;28;20061;-85
2022/09/30 10:26:26;;;;;;;5.82;4.75;;;13.60;99.90;;;;;;4990581;28;20042;-85
2022/09/30 10:29:01;;;;;;;5.63;5.03;;;13.70;99.90;;;;;;4999509;28;20118;-85
2022/09/30 10:31:31;;;;;;;6.10;4.20;;;13.70;99.90;;;;;;5001662;28;20086;-85
2022/09/30 10:34:22;;;;;;;6.85;5.13;;;13.80;99.90;;;;;;5005209;28;20050;-85
2022/09/30 10:36:49;;;;;;;9.32;4.88;;;13.80;99.90;;;;;;4986219;28;20125;-85
2022/09/30 10:39:26;;;;;;;7.55;5.00;;;13.90;99.90;;;;;;4988756;28;20056;-85
2022/09/30 10:42:24;;;;;;;4.40;3.60;;;13.90;99.90;;;;;;4987969;28;20046;-85
2022/09/30 10:45:05;;;;;;;4.93;3.53;;;13.80;99.90;;;;;;4983880;28;20057;-85
2022/09/30 10:47:32;;;;;;;5.13;3.55;;;13.70;99.90;;;;;;4987564;28;20069;-85
2022/09/30 10:50:07;;;;;;;4.78;3.50;;;13.90;99.90;;;;;;5002244;28;20088;-86
2022/09/30 10:52:46;;;;;;;4.88;3.67;;;13.80;99.90;;;;;;4984586;28;20054;-85
2022/09/30 10:55:29;;;;;;;4.60;3.58;;;13.90;99.90;;;;;;4983849;28;20144;-85
2022/09/30 10:58:20;;;;;;;6.05;3.90;;;14.00;99.90;;;;;;4988922;28;20053;-85
2022/09/30 11:00:48;;;;;;;;;;;14.10;99.90;;;;;;5002753;28;20052;-86
2022/09/30 11:03:23;;;;;;;5.07;3.30;;;14.10;99.90;;;;;;4997586;28;19922;-85
2022/09/30 11:05:50;;;;;;;3.25;2.95;;;14.00;99.90;;;;;;4993397;28;20519;-85
2022/09/30 11:08:43;;;;;;;6.22;3.83;;;14.00;99.90;;;;;;4992746;28;20136;-85
2022/09/30 11:11:18;;;;;;;4.45;3.47;;;13.90;99.90;;;;;;4992045;28;20047;-85
2022/09/30 11:14:16;;;;;;;3.85;3.40;;;13.90;99.90;;;;;;4984499;28;20112;-85
2022/09/30 11:16:51;;;;;;;4.82;3.78;;;13.90;99.90;;;;;;4997964;28;20141;-85
2022/09/30 11:19:25;;;;;;;5.20;3.65;;;14.00;99.90;;;;;;4986771;28;20133;-85
2022/09/30 11:22:21;;;;;;;3.90;3.35;;;14.00;99.90;;;;;;4997534;28;20133;-85
2022/09/30 11:24:51;;;;;;;4.30;3.22;;;14.00;99.90;;;;;;5003513;28;20053;-85
2022/09/30 11:27:38;;;;;;;3.17;2.80;;;14.10;99.90;;;;;;5003006;28;20054;-85
2022/09/30 11:30:28;;;;;;;3.53;2.67;;;14.10;99.90;;;;;;4987626;28;20053;-85
2022/09/30 11:33:33;;;;;;;4.25;2.38;;;14.10;99.90;;;;;;4998189;28;20052;-85
2022/09/30 11:36:36;;;;;;;2.78;2.45;;;14.10;99.90;;;;;;4991025;28;20050;-85
2022/09/30 11:39:27;;;;;;;2.90;2.47;;;14.10;99.90;;;;;;4998645;28;20053;-85
2022/09/30 11:42:00;;;;;;;2.80;2.17;;;14.20;99.90;;;;;;4990853;28;20050;-85
2022/09/30 11:44:27;;;;;;;4.20;3.05;;;14.20;99.90;;;;;;5006181;28;20054;-85
2022/09/30 11:47:06;;;;;;;5.50;3.10;;;14.20;99.90;;;;;;4986973;28;20057;-85
2022/09/30 11:49:42;;;;;;;4.07;2.58;;;14.10;99.90;;;;;;5003198;28;20050;-85
2022/09/30 11:52:25;;;;;;;3.92;2.78;;;14.10;99.90;;;;;;5004053;28;20499;-84
2022/09/30 11:55:05;;;;;;;4.93;2.70;;;14.10;99.90;;;;;;4994199;28;20521;-84
2022/09/30 11:58:04;;;;;;;4.80;2.85;;;14.10;99.90;;;;;;5004666;28;20054;-85
2022/09/30 12:00:57;;;;;;;4.15;2.60;;;14.00;99.90;;;;;;5001348;28;20046;-83
2022/09/30 12:03:38;;;;;;;4.82;2.70;;;14.00;99.90;;;;;;4980282;28;20500;-83
2022/09/30 12:06:32;;;;;;;4.65;2.80;;;14.10;99.90;;;;;;4990355;28;20056;-84
2022/09/30 12:09:15;;;;;;;3.13;2.40;;;14.10;99.90;;;;;;4983454;28;20049;-85
2022/09/30 12:11:51;;;;;;;3.58;2.35;;;14.20;99.90;;;;;;4991937;28;20045;-84
2022/09/30 12:14:24;;;;;;;2.90;2.38;;;14.30;99.90;;;;;;5001414;28;20055;-84
2022/09/30 12:16:52;;;;;;;4.22;2.67;;;14.30;99.90;;;;;;4990352;28;20054;-84
2022/09/30 12:19:35;;;;;;;4.07;2.35;;;14.30;99.90;;;;;;4996820;28;20045;-84
2022/09/30 12:22:13;;;;;;;2.88;2.10;;;14.20;99.90;;;;;;4987800;28;20064;-84
2022/09/30 12:24:44;;;;;;;2.70;2.47;;;14.20;99.90;;;;;;4998724;28;20060;-85
2022/09/30 12:27:22;;;;;;;5.95;2.22;;;14.20;99.90;;;;;;4992278;28;20511;-84
2022/09/30 12:30:16;;;;;;;2.72;2.20;;;14.20;99.90;;;;;;5006505;28;20133;-84
2022/09/30 12:33:17;;;;;;;2.85;2.10;;;14.20;99.90;;;;;;4990527;28;20054;-84
2022/09/30 12:36:05;;;;;;;3.83;2.03;;;14.30;99.90;;;;;;5001246;28;20484;-84
2022/09/30 12:39:02;;;;;;;3.03;2.38;;;14.40;99.90;;;;;;5008624;28;20401;-84
2022/09/30 12:42:10;;;;;;;2.78;1.70;;;14.50;99.90;;;;;;5003985;28;20062;-84
2022/09/30 12:44:43;;;;;;;2.55;2.08;;;14.70;99.90;;;;;;4989600;28;20043;-84
2022/09/30 12:47:48;;;;;;;3.83;2.22;;;14.70;99.90;;;;;;4987308;28;20415;-84
2022/09/30 12:50:20;;;;;;;6.80;2.58;;;14.90;99.90;;;;;;5006594;28;20047;-84
2022/09/30 12:52:47;;;;;;;3.42;1.90;;;15.00;99.90;;;;;;4990906;28;20531;-85
2022/09/30 12:55:29;;;;;;;2.20;2.00;;;15.20;99.90;;;;;;4993241;28;20056;-84
2022/09/30 12:58:01;;;;;;;2.35;1.85;;;15.20;99.90;;;;;;4988496;28;20081;-84
2022/09/30 13:00:33;;;;;;;3.22;2.40;;;15.30;99.90;;;;;;4993016;28;20042;-83
2022/09/30 13:03:17;;;;;;;2.35;2.15;;;15.50;99.90;;;;;;5000646;28;20137;-85
2022/09/30 13:05:51;;;;;;;2.78;2.25;;;15.70;99.90;;;;;;4990292;28;20089;-86
2022/09/30 13:08:17;;;;;;;2.78;2.28;;;15.70;99.90;;;;;;4983118;28;20525;-84
2022/09/30 13:11:03;;;;;;;2.67;2.22;;;15.70;99.90;;;;;;4994503;28;20051;-86
2022/09/30 13:13:32;;;;;;;2.43;1.97;;;15.80;99.90;;;;;;4983537;28;20049;-86
2022/09/30 13:16:05;;;;;;;2.92;2.15;;;16.00;99.90;;;;;;4997096;28;20117;-85
2022/09/30 13:18:31;;;;;;;4.35;2.15;;;16.00;99.90;;;;;;5014949;28;20046;-86
2022/09/30 13:21:05;;;;;;;5.55;2.28;;;16.00;99.90;;;;;;5012119;28;20102;-86
2022/09/30 13:23:51;;;;;;;3.50;1.88;;;16.10;99.90;;;;;;5024999;28;20096;-86
2022/09/30 13:26:21;;;;;;;3.45;1.80;;;16.10;99.90;;;;;;5019888;28;20061;-86
2022/09/30 13:28:52;;;;;;;1.52;1.42;;;16.20;99.90;;;;;;5004590;28;20073;-85
2022/09/30 13:31:22;;;;;;;2.70;1.92;;;16.20;99.90;;;;;;5012859;28;20050;-85
2022/09/30 13:34:05;;;;;;;2.95;2.25;;;16.20;99.90;;;;;;5011777;28;20053;-86
2022/09/30 13:36:58;;;;;;;2.92;2.30;;;16.30;99.90;;;;;;4997745;28;20625;-85
2022/09/30 13:39:48;;;;;;;1.95;1.67;;;16.30;99.90;;;;;;4998281;28;20077;-86
2022/09/30 13:42:28;;;;;;;2.97;1.77;;;16.40;99.90;;;;;;5014608;28;20496;-86
2022/09/30 13:45:15;;;;;;;1.75;1.63;;;16.40;99.90;;;;;;4987048;28;20082;-85
2022/09/30 13:47:56;;;;;;;1.83;1.60;;;16.50;99.90;;;;;;4997190;28;20524;-86
2022/09/30 13:50:31;;;;;;;2.72;2.00;;;16.50;99.90;;;;;;4992959;28;20054;-86
2022/09/30 13:53:11;;;;;;;1.73;1.23;;;16.50;99.90;;;;;;5010598;28;20060;-84
2022/09/30 13:55:44;;;;;;;3.78;2.25;;;16.50;99.90;;;;;;4991131;28;20570;-85
2022/09/30 13:58:38;;;;;;;5.55;1.88;;;16.60;99.90;;;;;;4987049;28;20052;-85
2022/09/30 14:01:25;;;;;;;2.40;1.23;;;16.50;99.90;;;;;;5004805;28;20040;-85
2022/09/30 14:04:15;;;;;;;2.17;1.80;;;16.50;99.90;;;;;;4999829;28;20042;-85
2022/09/30 14:07:16;;;;;;;2.13;1.50;;;16.50;99.90;;;;;;5022076;28;20045;-85
2022/09/30 14:09:42;;;;;;;;;;;16.60;99.90;;;;;;5005110;28;20048;-85
2022/09/30 14:12:34;;;;;;;2.67;1.60;;;16.60;99.90;;;;;;5014834;28;19960;-85
2022/09/30 14:15:21;;;;;;;2.25;1.58;;;16.60;99.90;;;;;;5018405;28;20114;-85
2022/09/30 14:18:11;;;;;;;1.60;1.48;;;16.50;99.90;;;;;;4996751;28;20132;-85
2022/09/30 14:20:46;;;;;;;2.67;1.80;;;16.50;99.90;;;;;;5003152;28;20442;-85
2022/09/30 14:23:15;;;;;;;2.58;1.40;;;16.40;99.90;;;;;;4997386;28;20056;-85
2022/09/30 14:26:08;;;;;;;4.50;1.92;;;16.40;99.90;;;;;;5007143;28;20052;-85
2022/09/30 14:28:42;;;;;;;2.13;1.77;;;16.40;99.90;;;;;;4969257;28;20054;-84
2022/09/30 14:31:15;;;;;;;3.33;1.30;;;16.40;99.90;;;;;;4994640;28;20045;-85
2022/09/30 14:33:47;;;;;;;1.85;1.40;;;16.40;99.90;;;;;;5003504;28;20418;-85
2022/09/30 14:36:20;;;;;;;1.45;1.35;;;16.40;99.90;;;;;;4983080;28;20132;-85
2022/09/30 14:38:55;;;;;;;2.95;1.60;;;16.40;99.90;;;;;;4984056;28;20496;-85
2022/09/30 14:41:22;;;;;;;3.83;1.10;;;16.30;99.90;;;;;;4998796;28;20058;-85
2022/09/30 14:43:58;;;;;;;3.58;1.25;;;16.30;99.90;;;;;;4990912;28;20054;-85
2022/09/30 14:46:29;;;;;;;1.73;1.15;;;16.20;99.90;;;;;;5003957;28;20646;-85
2022/09/30 14:49:03;;;;;;;2.30;1.83;;;16.10;99.90;;;;;;4993278;28;20050;-86
2022/09/30 14:51:36;;;;;;;3.78;1.23;;;16.10;99.90;;;;;;4979826;28;20054;-86
2022/09/30 14:54:05;;;;;;;2.03;1.38;;;16.00;99.90;;;;;;4991960;28;20424;-85
2022/09/30 14:56:34;;;;;;;1.85;1.30;;;15.90;99.90;;;;;;4992929;28;20055;-86
2022/09/30 14:59:33;;;;;;;1.48;1.02;;;15.80;99.90;;;;;;4983762;28;20056;-85
2022/09/30 15:02:02;;;;;;;1.67;1.10;;;15.90;99.90;;;;;;4971559;28;20042;-85
2022/09/30 15:04:35;;;;;;;1.77;1.17;;;15.80;99.90;;;;;;4989251;28;20054;-85
2022/09/30 15:07:05;;;;;;;3.63;1.50;;;15.70;99.90;;;;;;4992714;28;20054;-85
2022/09/30 15:09:33;;;;;;;;;;;15.70;99.90;;;;;;4997323;28;20049;-85
2022/09/30 15:12:14;;;;;;;3.92;1.35;;;15.80;99.90;;;;;;4994860;28;20345;-85
2022/09/30 15:14:47;;;;;;;2.10;1.77;;;15.80;99.90;;;;;;5012132;28;20052;-84
2022/09/30 15:17:19;;;;;;;3.78;1.80;;;15.80;99.90;;;;;;5005713;28;20049;-85
2022/09/30 15:19:49;;;;;;;3.28;1.42;;;15.80;99.90;;;;;;5002333;28;20050;-85
2022/09/30 15:22:17;;;;;;;2.30;1.05;;;15.80;99.90;;;;;;4995985;28;20045;-85
2022/09/30 15:24:46;;;;;;;1.30;1.05;;;15.80;99.90;;;;;;5022448;28;20073;-86
2022/09/30 15:27:35;;;;;;;3.47;1.30;;;15.80;99.90;;;;;;4999249;28;20388;-85
2022/09/30 15:30:14;;;;;;;4.63;1.45;;;15.80;99.90;;;;;;5004465;28;20108;-85
2022/09/30 15:32:41;;;;;;;1.40;1.08;;;15.80;99.90;;;;;;4983139;28;20073;-84
2022/09/30 15:35:15;;;;;;;2.28;1.30;;;15.80;99.90;;;;;;5006690;28;20053;-85
2022/09/30 15:37:43;;;;;;;1.50;1.13;;;15.70;99.90;;;;;;4984216;28;20104;-85
2022/09/30 15:43:06;;;;;;;1.45;0.90;;;15.70;99.90;;;;;;5002641;28;20060;-85
2022/09/30 15:45:47;;;;;;;1.40;0.93;;;15.70;99.90;;;;;;4987841;28;20547;-85
2022/09/30 15:48:21;;;;;;;4.05;1.02;;;15.70;99.90;;;;;;5000582;28;20427;-85
2022/09/30 15:50:52;;;;;;;0.90;0.90;;;15.70;99.90;;;;;;5007994;28;20045;-85
2022/09/30 15:53:21;;;;;;;1.10;0.90;;;15.70;99.90;;;;;;4984878;28;20074;-85
2022/09/30 15:55:54;;;;;;;1.25;0.85;;;15.70;99.90;;;;;;4995006;28;20062;-85
2022/09/30 15:58:38;;;;;;;2.60;1.10;;;15.70;99.90;;;;;;5008129;28;20781;-85
2022/09/30 16:01:23;;;;;;;3.25;1.27;;;15.70;99.90;;;;;;5004826;28;20053;-85
2022/09/30 16:03:59;;;;;;;3.60;1.48;;;15.70;99.90;;;;;;4992408;28;20133;-85
2022/09/30 16:06:33;;;;;;;3.17;1.58;;;15.60;99.90;;;;;;5006030;28;20042;-85
2022/09/30 16:09:17;;;;;;;1.52;1.08;;;15.60;99.90;;;;;;4994616;28;20133;-84
2022/09/30 16:12:08;;;;;;;1.15;0.80;;;15.60;99.90;;;;;;4996478;28;20096;-84
2022/09/30 16:14:41;;;;;;;2.58;1.02;;;15.60;99.90;;;;;;4981921;28;20056;-84
2022/09/30 16:17:24;;;;;;;1.70;1.00;;;15.50;99.90;;;;;;4995129;28;20049;-84
2022/09/30 16:19:57;;;;;;;3.15;1.05;;;15.50;99.90;;;;;;5010936;28;20051;-84
2022/09/30 16:22:40;;;;;;;3.35;1.27;;;15.50;99.90;;;;;;5005479;28;20046;-84
2022/09/30 16:25:10;;;;;;;5.90;1.33;;;15.40;99.90;;;;;;4998685;28;20046;-85
2022/09/30 16:27:37;;;;;;;1.85;1.20;;;15.30;99.90;;;;;;5008643;28;20129;-84
2022/09/30 16:30:05;;;;;;;1.60;1.30;;;15.30;99.90;;;;;;5008961;28;20065;-84
2022/09/30 16:32:37;;;;;;;3.97;1.38;;;15.10;99.90;;;;;;4985565;28;20046;-84
2022/09/30 16:35:05;;;;;;;2.33;1.60;;;15.00;99.90;;;;;;4991178;28;20455;-85
2022/09/30 16:37:32;;;;;;;2.55;1.70;;;14.90;99.90;;;;;;5007305;28;20477;-84
2022/09/30 16:40:09;;;;;;;2.67;1.55;;;14.80;99.90;;;;;;4994404;28;20545;-83
2022/09/30 16:42:35;;;;;;;4.05;1.40;;;14.80;99.90;;;;;;4988918;28;20049;-84
2022/09/30 16:45:03;;;;;;;2.88;1.38;;;14.60;99.90;;;;;;4987617;28;20464;-84
2022/09/30 16:47:29;;;;;;;2.53;1.50;;;14.50;99.90;;;;;;4982533;28;20157;-85
2022/09/30 16:49:57;;;;;;;3.92;1.35;;;14.40;99.90;;;;;;4988088;28;20053;-84
2022/09/30 16:52:24;;;;;;;2.05;1.30;;;14.30;99.90;;;;;;5001642;28;20050;-84
2022/09/30 16:54:51;;;;;;;3.72;1.38;;;14.20;99.90;;;;;;4996969;28;20064;-84
2022/09/30 16:57:18;;;;;;;2.60;1.52;;;14.20;99.90;;;;;;5008743;28;20710;-84
2022/09/30 16:59:44;;;;;;;2.72;1.20;;;14.00;99.90;;;;;;4987417;28;20500;-84
2022/09/30 17:02:13;;;;;;;2.00;1.35;;;13.90;99.90;;;;;;4995993;28;20118;-84
2022/09/30 17:04:40;;;;;;;2.67;1.10;;;13.90;99.90;;;;;;5006103;28;20448;-85
2022/09/30 17:07:10;;;;;;;3.80;1.83;;;13.70;99.90;;;;;;4984628;28;20046;-85
2022/09/30 17:09:37;;;;;;;0.90;0.90;;;13.70;99.90;;;;;;4991738;28;20068;-85